Terminal Aerodrome Forecast
Issued by NWS Raleigh/Durham, NC

Home | Current Version | Previous Version | Text Only | Print | Product List | Glossary On
Versions: 1 2 3 4 5 6 7 8 9 10 11 12 13 14 15 16 17 18 19 20 21 22 23 24
000
FTUS42 KRAH 231404 AAB
TAFFAY
TAF AMD
KFAY 231404Z 2314/2412 05004KT 3SM BR BKN004
      TEMPO 2314/2315 1/4SM FG OVC002
     FM231530 VRB03KT 6SM BR BKN007
     FM231615 VRB03KT P6SM BKN012
     FM231700 18005KT P6SM SCT025 BKN250
     FM240700 19002KT 4SM BR SCT002 SCT250
     FM240900 19002KT 1/2SM FG OVC002=

USA.gov is the U.S. government's official web portal to all federal, state and local government web resources and services.